sensor_id;sensor_type;location;lat;lon;timestamp;temperature;humidity
28677;DHT22;15858;48.338;11.078;2022-10-16T00:01:31;13.20;99.90
28677;DHT22;15858;48.338;11.078;2022-10-16T00:03:59;13.10;99.90
28677;DHT22;15858;48.338;11.078;2022-10-16T00:06:27;13.20;99.90
28677;DHT22;15858;48.338;11.078;2022-10-16T00:08:54;13.20;99.90
28677;DHT22;15858;48.338;11.078;2022-10-16T00:11:27;13.20;99.90
28677;DHT22;15858;48.338;11.078;2022-10-16T00:13:57;13.20;99.90
28677;DHT22;15858;48.338;11.078;2022-10-16T00:16:25;13.10;99.90
28677;DHT22;15858;48.338;11.078;2022-10-16T00:18:52;13.20;99.90
28677;DHT22;15858;48.338;11.078;2022-10-16T00:21:24;13.10;99.90
28677;DHT22;15858;48.338;11.078;2022-10-16T00:23:52;13.10;99.90
28677;DHT22;15858;48.338;11.078;2022-10-16T00:26:20;13.10;99.90
28677;DHT22;15858;48.338;11.078;2022-10-16T00:28:50;13.20;99.90
28677;DHT22;15858;48.338;11.078;2022-10-16T00:31:20;13.20;99.90
28677;DHT22;15858;48.338;11.078;2022-10-16T00:33:47;13.20;99.90
28677;DHT22;15858;48.338;11.078;2022-10-16T00:36:17;13.20;99.90
28677;DHT22;15858;48.338;11.078;2022-10-16T00:38:44;13.10;99.90
28677;DHT22;15858;48.338;11.078;2022-10-16T00:41:13;13.10;99.90
28677;DHT22;15858;48.338;11.078;2022-10-16T00:43:49;13.10;99.90
28677;DHT22;15858;48.338;11.078;2022-10-16T00:46:26;13.10;99.90
28677;DHT22;15858;48.338;11.078;2022-10-16T00:51:30;13.20;99.90
28677;DHT22;15858;48.338;11.078;2022-10-16T00:53:57;13.10;99.90
28677;DHT22;15858;48.338;11.078;2022-10-16T00:56:24;13.10;99.90
28677;DHT22;15858;48.338;11.078;2022-10-16T00:58:51;13.00;99.90
28677;DHT22;15858;48.338;11.078;2022-10-16T01:01:18;13.00;99.90
28677;DHT22;15858;48.338;11.078;2022-10-16T01:03:44;13.00;99.90
28677;DHT22;15858;48.338;11.078;2022-10-16T01:06:16;13.00;99.90
28677;DHT22;15858;48.338;11.078;2022-10-16T01:08:49;13.00;99.90
28677;DHT22;15858;48.338;11.078;2022-10-16T01:11:32;13.00;99.90
28677;DHT22;15858;48.338;11.078;2022-10-16T01:14:06;13.00;99.90
28677;DHT22;15858;48.338;11.078;2022-10-16T01:16:45;13.00;99.90
28677;DHT22;15858;48.338;11.078;2022-10-16T01:19:36;13.00;99.90
28677;DHT22;15858;48.338;11.078;2022-10-16T01:22:08;13.00;99.90
28677;DHT22;15858;48.338;11.078;2022-10-16T01:24:40;13.00;99.90
28677;DHT22;15858;48.338;11.078;2022-10-16T01:27:21;13.00;99.90
28677;DHT22;15858;48.338;11.078;2022-10-16T01:30:15;13.00;99.90
28677;DHT22;15858;48.338;11.078;2022-10-16T01:32:55;13.00;99.90
28677;DHT22;15858;48.338;11.078;2022-10-16T01:35:36;13.00;99.90
28677;DHT22;15858;48.338;11.078;2022-10-16T01:38:12;12.90;99.90
28677;DHT22;15858;48.338;11.078;2022-10-16T01:40:45;12.90;99.90
28677;DHT22;15858;48.338;11.078;2022-10-16T01:43:15;13.00;99.90
28677;DHT22;15858;48.338;11.078;2022-10-16T01:45:44;13.00;99.90
28677;DHT22;15858;48.338;11.078;2022-10-16T01:48:14;12.90;99.90
28677;DHT22;15858;48.338;11.078;2022-10-16T01:50:43;12.90;99.90
28677;DHT22;15858;48.338;11.078;2022-10-16T01:53:13;12.90;99.90
28677;DHT22;15858;48.338;11.078;2022-10-16T01:55:44;12.90;99.90
28677;DHT22;15858;48.338;11.078;2022-10-16T01:58:13;12.90;99.90
28677;DHT22;15858;48.338;11.078;2022-10-16T02:00:43;12.90;99.90
28677;DHT22;15858;48.338;11.078;2022-10-16T02:03:13;12.90;99.90
28677;DHT22;15858;48.338;11.078;2022-10-16T02:05:46;12.90;99.90
28677;DHT22;15858;48.338;11.078;2022-10-16T02:08:15;12.80;99.90
28677;DHT22;15858;48.338;11.078;2022-10-16T02:10:42;12.80;99.90
28677;DHT22;15858;48.338;11.078;2022-10-16T02:13:33;12.80;99.90
28677;DHT22;15858;48.338;11.078;2022-10-16T02:16:00;12.70;99.90
28677;DHT22;15858;48.338;11.078;2022-10-16T02:18:27;12.70;99.90
28677;DHT22;15858;48.338;11.078;2022-10-16T02:23:51;12.70;99.90
28677;DHT22;15858;48.338;11.078;2022-10-16T02:26:27;12.60;99.90
28677;DHT22;15858;48.338;11.078;2022-10-16T02:29:02;12.60;99.90
28677;DHT22;15858;48.338;11.078;2022-10-16T02:31:32;12.60;99.90
28677;DHT22;15858;48.338;11.078;2022-10-16T02:34:02;12.60;99.90
28677;DHT22;15858;48.338;11.078;2022-10-16T02:36:30;12.60;99.90
28677;DHT22;15858;48.338;11.078;2022-10-16T02:38:58;12.60;99.90
28677;DHT22;15858;48.338;11.078;2022-10-16T02:41:25;12.60;99.90
28677;DHT22;15858;48.338;11.078;2022-10-16T02:43:52;12.60;99.90
28677;DHT22;15858;48.338;11.078;2022-10-16T02:46:19;12.50;99.90
28677;DHT22;15858;48.338;11.078;2022-10-16T02:48:45;12.60;99.90
28677;DHT22;15858;48.338;11.078;2022-10-16T02:51:12;12.60;99.90
28677;DHT22;15858;48.338;11.078;2022-10-16T02:53:39;12.60;99.90
28677;DHT22;15858;48.338;11.078;2022-10-16T02:56:05;12.60;99.90
28677;DHT22;15858;48.338;11.078;2022-10-16T02:58:32;12.60;99.90
28677;DHT22;15858;48.338;11.078;2022-10-16T03:00:59;12.60;99.90
28677;DHT22;15858;48.338;11.078;2022-10-16T03:03:25;12.60;99.90
28677;DHT22;15858;48.338;11.078;2022-10-16T03:05:52;12.60;99.90
28677;DHT22;15858;48.338;11.078;2022-10-16T03:08:18;12.70;99.90
28677;DHT22;15858;48.338;11.078;2022-10-16T03:10:45;12.70;99.90
28677;DHT22;15858;48.338;11.078;2022-10-16T03:13:12;12.70;99.90
28677;DHT22;15858;48.338;11.078;2022-10-16T03:15:38;12.70;99.90
28677;DHT22;15858;48.338;11.078;2022-10-16T03:18:05;12.70;99.90
28677;DHT22;15858;48.338;11.078;2022-10-16T03:20:31;12.70;99.90
28677;DHT22;15858;48.338;11.078;2022-10-16T03:22:58;12.70;99.90
28677;DHT22;15858;48.338;11.078;2022-10-16T03:25:25;12.70;99.90
28677;DHT22;15858;48.338;11.078;2022-10-16T03:27:52;12.70;99.90
28677;DHT22;15858;48.338;11.078;2022-10-16T03:30:21;12.70;99.90
28677;DHT22;15858;48.338;11.078;2022-10-16T03:32:48;12.80;99.90
28677;DHT22;15858;48.338;11.078;2022-10-16T03:35:14;12.80;99.90
28677;DHT22;15858;48.338;11.078;2022-10-16T03:37:41;12.80;99.90
28677;DHT22;15858;48.338;11.078;2022-10-16T03:40:08;12.80;99.90
28677;DHT22;15858;48.338;11.078;2022-10-16T03:42:34;12.90;99.90
28677;DHT22;15858;48.338;11.078;2022-10-16T03:45:01;12.80;99.90
28677;DHT22;15858;48.338;11.078;2022-10-16T03:47:28;12.90;99.90
28677;DHT22;15858;48.338;11.078;2022-10-16T03:49:55;12.90;99.90
28677;DHT22;15858;48.338;11.078;2022-10-16T03:52:21;12.90;99.90
28677;DHT22;15858;48.338;11.078;2022-10-16T03:54:48;12.90;99.90
28677;DHT22;15858;48.338;11.078;2022-10-16T03:57:15;12.90;99.90
28677;DHT22;15858;48.338;11.078;2022-10-16T03:59:41;12.90;99.90
28677;DHT22;15858;48.338;11.078;2022-10-16T04:02:08;12.90;99.90
28677;DHT22;15858;48.338;11.078;2022-10-16T04:04:35;12.90;99.90
28677;DHT22;15858;48.338;11.078;2022-10-16T04:07:01;12.90;99.90
28677;DHT22;15858;48.338;11.078;2022-10-16T04:09:28;12.90;99.90
28677;DHT22;15858;48.338;11.078;2022-10-16T04:11:54;12.90;99.90
28677;DHT22;15858;48.338;11.078;2022-10-16T04:14:21;12.90;99.90
28677;DHT22;15858;48.338;11.078;2022-10-16T04:16:48;12.90;99.90
28677;DHT22;15858;48.338;11.078;2022-10-16T04:19:14;12.90;99.90
28677;DHT22;15858;48.338;11.078;2022-10-16T04:21:41;12.90;99.90
28677;DHT22;15858;48.338;11.078;2022-10-16T04:24:08;12.90;99.90
28677;DHT22;15858;48.338;11.078;2022-10-16T04:26:34;12.90;99.90
28677;DHT22;15858;48.338;11.078;2022-10-16T04:29:01;12.90;99.90
28677;DHT22;15858;48.338;11.078;2022-10-16T04:31:28;12.90;99.90
28677;DHT22;15858;48.338;11.078;2022-10-16T04:33:54;12.90;99.90
28677;DHT22;15858;48.338;11.078;2022-10-16T04:36:21;12.90;99.90
28677;DHT22;15858;48.338;11.078;2022-10-16T04:38:52;12.90;99.90
28677;DHT22;15858;48.338;11.078;2022-10-16T04:41:18;13.00;99.90
28677;DHT22;15858;48.338;11.078;2022-10-16T04:43:45;12.90;99.90
28677;DHT22;15858;48.338;11.078;2022-10-16T04:46:12;13.00;99.90
28677;DHT22;15858;48.338;11.078;2022-10-16T04:48:38;13.00;99.90
28677;DHT22;15858;48.338;11.078;2022-10-16T04:51:05;13.10;99.90
28677;DHT22;15858;48.338;11.078;2022-10-16T04:53:31;13.00;99.90
28677;DHT22;15858;48.338;11.078;2022-10-16T04:55:58;13.10;99.90
28677;DHT22;15858;48.338;11.078;2022-10-16T04:58:25;13.00;99.90
28677;DHT22;15858;48.338;11.078;2022-10-16T05:00:51;13.00;99.90
28677;DHT22;15858;48.338;11.078;2022-10-16T05:03:18;12.90;99.90
28677;DHT22;15858;48.338;11.078;2022-10-16T05:05:45;12.90;99.90
28677;DHT22;15858;48.338;11.078;2022-10-16T05:08:16;12.80;99.90
28677;DHT22;15858;48.338;11.078;2022-10-16T05:10:44;12.70;99.90
28677;DHT22;15858;48.338;11.078;2022-10-16T05:13:11;12.70;99.90
28677;DHT22;15858;48.338;11.078;2022-10-16T05:15:38;12.70;99.90
28677;DHT22;15858;48.338;11.078;2022-10-16T05:18:04;12.70;99.90
28677;DHT22;15858;48.338;11.078;2022-10-16T05:20:31;12.70;99.90
28677;DHT22;15858;48.338;11.078;2022-10-16T05:22:58;12.70;99.90
28677;DHT22;15858;48.338;11.078;2022-10-16T05:25:25;12.70;99.90
28677;DHT22;15858;48.338;11.078;2022-10-16T05:27:51;12.70;99.90
28677;DHT22;15858;48.338;11.078;2022-10-16T05:30:18;12.70;99.90
28677;DHT22;15858;48.338;11.078;2022-10-16T05:32:49;12.70;99.90
28677;DHT22;15858;48.338;11.078;2022-10-16T05:35:17;12.70;99.90
28677;DHT22;15858;48.338;11.078;2022-10-16T05:37:44;12.70;99.90
28677;DHT22;15858;48.338;11.078;2022-10-16T05:40:11;12.70;99.90
28677;DHT22;15858;48.338;11.078;2022-10-16T05:42:38;12.70;99.90
28677;DHT22;15858;48.338;11.078;2022-10-16T05:45:06;12.70;99.90
28677;DHT22;15858;48.338;11.078;2022-10-16T05:47:34;12.60;99.90
28677;DHT22;15858;48.338;11.078;2022-10-16T05:50:01;12.70;99.90
28677;DHT22;15858;48.338;11.078;2022-10-16T05:52:27;12.60;99.90
28677;DHT22;15858;48.338;11.078;2022-10-16T05:54:54;12.60;99.90
28677;DHT22;15858;48.338;11.078;2022-10-16T05:57:21;12.60;99.90
28677;DHT22;15858;48.338;11.078;2022-10-16T05:59:47;12.50;99.90
28677;DHT22;15858;48.338;11.078;2022-10-16T06:02:14;12.50;99.90
28677;DHT22;15858;48.338;11.078;2022-10-16T06:04:41;12.40;99.90
28677;DHT22;15858;48.338;11.078;2022-10-16T06:07:07;12.40;99.90
28677;DHT22;15858;48.338;11.078;2022-10-16T06:09:34;12.40;99.90
28677;DHT22;15858;48.338;11.078;2022-10-16T06:12:01;12.40;99.90
28677;DHT22;15858;48.338;11.078;2022-10-16T06:14:27;12.40;99.90
28677;DHT22;15858;48.338;11.078;2022-10-16T06:16:54;12.40;99.90
28677;DHT22;15858;48.338;11.078;2022-10-16T06:19:21;12.40;99.90
28677;DHT22;15858;48.338;11.078;2022-10-16T06:21:47;12.40;99.90
28677;DHT22;15858;48.338;11.078;2022-10-16T06:24:14;12.50;99.90
28677;DHT22;15858;48.338;11.078;2022-10-16T06:26:40;12.40;99.90
28677;DHT22;15858;48.338;11.078;2022-10-16T06:29:08;12.40;99.90
28677;DHT22;15858;48.338;11.078;2022-10-16T06:31:35;12.40;99.90
28677;DHT22;15858;48.338;11.078;2022-10-16T06:34:02;12.40;99.90
28677;DHT22;15858;48.338;11.078;2022-10-16T06:36:28;12.40;99.90
28677;DHT22;15858;48.338;11.078;2022-10-16T06:38:55;12.50;99.90
28677;DHT22;15858;48.338;11.078;2022-10-16T06:41:22;12.50;99.90
28677;DHT22;15858;48.338;11.078;2022-10-16T06:43:49;12.60;99.90
28677;DHT22;15858;48.338;11.078;2022-10-16T06:46:18;12.60;99.90
28677;DHT22;15858;48.338;11.078;2022-10-16T06:48:52;12.70;99.90
28677;DHT22;15858;48.338;11.078;2022-10-16T06:51:21;12.80;99.90
28677;DHT22;15858;48.338;11.078;2022-10-16T06:53:53;12.90;99.90
28677;DHT22;15858;48.338;11.078;2022-10-16T06:56:30;13.10;99.90
28677;DHT22;15858;48.338;11.078;2022-10-16T06:58:58;13.20;99.90
28677;DHT22;15858;48.338;11.078;2022-10-16T07:01:25;13.40;99.90
28677;DHT22;15858;48.338;11.078;2022-10-16T07:03:53;13.50;99.90
28677;DHT22;15858;48.338;11.078;2022-10-16T07:06:21;13.70;99.90
28677;DHT22;15858;48.338;11.078;2022-10-16T07:08:49;13.80;99.90
28677;DHT22;15858;48.338;11.078;2022-10-16T07:11:18;13.90;99.90
28677;DHT22;15858;48.338;11.078;2022-10-16T07:13:54;14.10;99.90
28677;DHT22;15858;48.338;11.078;2022-10-16T07:16:32;14.30;99.90
28677;DHT22;15858;48.338;11.078;2022-10-16T07:19:00;14.50;99.90
28677;DHT22;15858;48.338;11.078;2022-10-16T07:21:30;14.60;99.90
28677;DHT22;15858;48.338;11.078;2022-10-16T07:23:59;14.70;99.90
28677;DHT22;15858;48.338;11.078;2022-10-16T07:26:27;14.80;99.90
28677;DHT22;15858;48.338;11.078;2022-10-16T07:28:54;14.90;99.90
28677;DHT22;15858;48.338;11.078;2022-10-16T07:31:21;15.10;99.90
28677;DHT22;15858;48.338;11.078;2022-10-16T07:33:48;15.10;99.90
28677;DHT22;15858;48.338;11.078;2022-10-16T07:36:17;15.30;99.90
28677;DHT22;15858;48.338;11.078;2022-10-16T07:38:44;15.40;99.90
28677;DHT22;15858;48.338;11.078;2022-10-16T07:41:13;15.40;99.90
28677;DHT22;15858;48.338;11.078;2022-10-16T07:43:44;15.50;99.90
28677;DHT22;15858;48.338;11.078;2022-10-16T07:46:11;15.60;99.90
28677;DHT22;15858;48.338;11.078;2022-10-16T07:48:38;15.70;99.90
28677;DHT22;15858;48.338;11.078;2022-10-16T07:51:06;15.90;99.90
28677;DHT22;15858;48.338;11.078;2022-10-16T07:53:33;16.00;99.90
28677;DHT22;15858;48.338;11.078;2022-10-16T07:56:02;16.10;99.90
28677;DHT22;15858;48.338;11.078;2022-10-16T07:58:29;16.20;99.90
28677;DHT22;15858;48.338;11.078;2022-10-16T08:00:56;16.30;99.90
28677;DHT22;15858;48.338;11.078;2022-10-16T08:03:24;16.40;99.90
28677;DHT22;15858;48.338;11.078;2022-10-16T08:05:51;16.50;99.90
28677;DHT22;15858;48.338;11.078;2022-10-16T08:08:19;16.60;99.90
28677;DHT22;15858;48.338;11.078;2022-10-16T08:10:45;16.70;99.90
28677;DHT22;15858;48.338;11.078;2022-10-16T08:13:12;16.80;99.90
28677;DHT22;15858;48.338;11.078;2022-10-16T08:15:39;17.00;99.90
28677;DHT22;15858;48.338;11.078;2022-10-16T08:18:05;17.10;99.90
28677;DHT22;15858;48.338;11.078;2022-10-16T08:20:32;17.20;99.90
28677;DHT22;15858;48.338;11.078;2022-10-16T08:23:00;17.30;99.90
28677;DHT22;15858;48.338;11.078;2022-10-16T08:25:27;17.50;99.90
28677;DHT22;15858;48.338;11.078;2022-10-16T08:27:54;17.80;99.90
28677;DHT22;15858;48.338;11.078;2022-10-16T08:30:22;17.90;99.90
28677;DHT22;15858;48.338;11.078;2022-10-16T08:32:49;18.10;99.90
28677;DHT22;15858;48.338;11.078;2022-10-16T08:35:16;18.20;99.90
28677;DHT22;15858;48.338;11.078;2022-10-16T08:37:43;18.40;99.90
28677;DHT22;15858;48.338;11.078;2022-10-16T08:40:29;18.40;99.90
28677;DHT22;15858;48.338;11.078;2022-10-16T08:46:11;18.80;99.90
28677;DHT22;15858;48.338;11.078;2022-10-16T08:48:54;19.00;99.90
28677;DHT22;15858;48.338;11.078;2022-10-16T08:53:59;19.40;99.90
28677;DHT22;15858;48.338;11.078;2022-10-16T08:56:28;19.50;99.90
28677;DHT22;15858;48.338;11.078;2022-10-16T08:58:55;19.70;99.90
28677;DHT22;15858;48.338;11.078;2022-10-16T09:01:41;19.80;99.90
28677;DHT22;15858;48.338;11.078;2022-10-16T09:22:34;20.80;99.90
28677;DHT22;15858;48.338;11.078;2022-10-16T09:25:11;20.90;99.90
28677;DHT22;15858;48.338;11.078;2022-10-16T09:27:38;20.90;99.90
28677;DHT22;15858;48.338;11.078;2022-10-16T09:30:13;21.00;99.90
28677;DHT22;15858;48.338;11.078;2022-10-16T09:32:42;21.20;99.90
28677;DHT22;15858;48.338;11.078;2022-10-16T09:35:18;21.40;99.90
28677;DHT22;15858;48.338;11.078;2022-10-16T09:37:49;21.50;99.90
28677;DHT22;15858;48.338;11.078;2022-10-16T09:40:32;21.70;99.90
28677;DHT22;15858;48.338;11.078;2022-10-16T09:46:00;21.90;99.90
28677;DHT22;15858;48.338;11.078;2022-10-16T09:48:48;22.00;99.90
28677;DHT22;15858;48.338;11.078;2022-10-16T09:51:26;22.20;99.90
28677;DHT22;15858;48.338;11.078;2022-10-16T09:54:01;22.30;99.90
28677;DHT22;15858;48.338;11.078;2022-10-16T09:56:30;22.40;99.90
28677;DHT22;15858;48.338;11.078;2022-10-16T09:59:00;22.60;99.90
28677;DHT22;15858;48.338;11.078;2022-10-16T10:01:35;22.60;99.90
28677;DHT22;15858;48.338;11.078;2022-10-16T10:04:03;22.50;99.90
28677;DHT22;15858;48.338;11.078;2022-10-16T10:06:45;22.30;99.90
28677;DHT22;15858;48.338;11.078;2022-10-16T10:17:11;21.80;99.90
28677;DHT22;15858;48.338;11.078;2022-10-16T10:22:43;21.60;99.90
28677;DHT22;15858;48.338;11.078;2022-10-16T10:36:14;22.70;99.90
28677;DHT22;15858;48.338;11.078;2022-10-16T10:38:58;22.80;99.90
28677;DHT22;15858;48.338;11.078;2022-10-16T10:42:06;22.80;99.90
28677;DHT22;15858;48.338;11.078;2022-10-16T10:47:24;22.70;99.90
28677;DHT22;15858;48.338;11.078;2022-10-16T10:50:07;22.70;99.90
28677;DHT22;15858;48.338;11.078;2022-10-16T10:52:58;22.70;99.90
28677;DHT22;15858;48.338;11.078;2022-10-16T10:55:39;22.80;99.90
28677;DHT22;15858;48.338;11.078;2022-10-16T10:58:37;23.00;99.90
28677;DHT22;15858;48.338;11.078;2022-10-16T11:01:18;23.20;99.90
28677;DHT22;15858;48.338;11.078;2022-10-16T11:04:14;23.40;99.90
28677;DHT22;15858;48.338;11.078;2022-10-16T11:06:50;23.70;99.90
28677;DHT22;15858;48.338;11.078;2022-10-16T11:09:22;23.80;99.90
28677;DHT22;15858;48.338;11.078;2022-10-16T11:11:55;23.70;99.90
28677;DHT22;15858;48.338;11.078;2022-10-16T11:14:39;23.70;99.90
28677;DHT22;15858;48.338;11.078;2022-10-16T11:17:09;23.60;99.90
28677;DHT22;15858;48.338;11.078;2022-10-16T11:19:52;23.70;99.90
28677;DHT22;15858;48.338;11.078;2022-10-16T11:22:32;23.80;99.90
28677;DHT22;15858;48.338;11.078;2022-10-16T11:27:47;24.10;99.90
28677;DHT22;15858;48.338;11.078;2022-10-16T11:30:26;24.30;99.90
28677;DHT22;15858;48.338;11.078;2022-10-16T11:41:31;24.90;99.90
28677;DHT22;15858;48.338;11.078;2022-10-16T11:49:47;25.10;99.90
28677;DHT22;15858;48.338;11.078;2022-10-16T11:52:26;25.20;99.90
28677;DHT22;15858;48.338;11.078;2022-10-16T11:55:01;25.40;99.90
28677;DHT22;15858;48.338;11.078;2022-10-16T11:57:34;25.50;99.90
28677;DHT22;15858;48.338;11.078;2022-10-16T12:05:28;25.50;99.10
28677;DHT22;15858;48.338;11.078;2022-10-16T12:08:10;25.20;98.50
28677;DHT22;15858;48.338;11.078;2022-10-16T12:10:39;25.00;98.00
28677;DHT22;15858;48.338;11.078;2022-10-16T12:13:36;24.90;99.20
28677;DHT22;15858;48.338;11.078;2022-10-16T12:16:20;24.70;99.80
28677;DHT22;15858;48.338;11.078;2022-10-16T12:18:48;24.60;99.90
28677;DHT22;15858;48.338;11.078;2022-10-16T12:21:17;24.80;99.90
28677;DHT22;15858;48.338;11.078;2022-10-16T12:23:50;24.80;99.90
28677;DHT22;15858;48.338;11.078;2022-10-16T12:26:32;24.80;99.90
28677;DHT22;15858;48.338;11.078;2022-10-16T12:29:19;24.80;99.90
28677;DHT22;15858;48.338;11.078;2022-10-16T12:31:49;24.90;99.60
28677;DHT22;15858;48.338;11.078;2022-10-16T12:34:43;25.10;98.70
28677;DHT22;15858;48.338;11.078;2022-10-16T12:37:20;25.10;98.10
28677;DHT22;15858;48.338;11.078;2022-10-16T12:39:48;25.20;97.90
28677;DHT22;15858;48.338;11.078;2022-10-16T12:44:54;25.20;95.60
28677;DHT22;15858;48.338;11.078;2022-10-16T12:49:57;25.30;96.10
28677;DHT22;15858;48.338;11.078;2022-10-16T12:52:35;25.40;95.70
28677;DHT22;15858;48.338;11.078;2022-10-16T12:55:04;25.40;95.80
28677;DHT22;15858;48.338;11.078;2022-10-16T13:00:36;25.50;94.90
28677;DHT22;15858;48.338;11.078;2022-10-16T13:08:39;25.60;96.30
28677;DHT22;15858;48.338;11.078;2022-10-16T13:17:06;25.50;92.60
28677;DHT22;15858;48.338;11.078;2022-10-16T13:25:51;25.50;94.60
28677;DHT22;15858;48.338;11.078;2022-10-16T13:28:21;25.50;94.10
28677;DHT22;15858;48.338;11.078;2022-10-16T13:30:53;25.40;94.90
28677;DHT22;15858;48.338;11.078;2022-10-16T13:33:34;25.20;94.30
28677;DHT22;15858;48.338;11.078;2022-10-16T13:36:03;25.20;94.60
28677;DHT22;15858;48.338;11.078;2022-10-16T13:38:35;25.20;96.40
28677;DHT22;15858;48.338;11.078;2022-10-16T13:41:04;24.90;95.30
28677;DHT22;15858;48.338;11.078;2022-10-16T13:43:35;24.70;95.10
28677;DHT22;15858;48.338;11.078;2022-10-16T13:46:13;24.70;96.50
28677;DHT22;15858;48.338;11.078;2022-10-16T13:48:41;24.50;97.40
28677;DHT22;15858;48.338;11.078;2022-10-16T13:51:18;24.50;96.50
28677;DHT22;15858;48.338;11.078;2022-10-16T13:53:45;24.50;97.90
28677;DHT22;15858;48.338;11.078;2022-10-16T13:56:17;24.30;97.90
28677;DHT22;15858;48.338;11.078;2022-10-16T13:58:45;24.30;99.30
28677;DHT22;15858;48.338;11.078;2022-10-16T14:01:20;24.10;99.90
28677;DHT22;15858;48.338;11.078;2022-10-16T14:04:01;24.10;97.60
28677;DHT22;15858;48.338;11.078;2022-10-16T14:06:29;24.10;98.90
28677;DHT22;15858;48.338;11.078;2022-10-16T14:11:33;24.00;99.90
28677;DHT22;15858;48.338;11.078;2022-10-16T14:14:00;23.90;99.90
28677;DHT22;15858;48.338;11.078;2022-10-16T14:16:31;23.70;99.90
28677;DHT22;15858;48.338;11.078;2022-10-16T14:19:02;23.60;99.90
28677;DHT22;15858;48.338;11.078;2022-10-16T14:21:30;23.50;99.90
28677;DHT22;15858;48.338;11.078;2022-10-16T14:23:56;23.60;98.40
28677;DHT22;15858;48.338;11.078;2022-10-16T14:26:27;23.70;97.30
28677;DHT22;15858;48.338;11.078;2022-10-16T14:29:24;23.70;97.00
28677;DHT22;15858;48.338;11.078;2022-10-16T14:31:59;23.60;97.80
28677;DHT22;15858;48.338;11.078;2022-10-16T14:34:29;23.50;99.90
28677;DHT22;15858;48.338;11.078;2022-10-16T14:37:22;23.30;99.90
28677;DHT22;15858;48.338;11.078;2022-10-16T14:39:54;23.10;99.90
28677;DHT22;15858;48.338;11.078;2022-10-16T14:42:24;23.00;99.90
28677;DHT22;15858;48.338;11.078;2022-10-16T14:44:52;22.90;99.90
28677;DHT22;15858;48.338;11.078;2022-10-16T14:47:21;22.70;99.90
28677;DHT22;15858;48.338;11.078;2022-10-16T14:49:49;22.60;99.90
28677;DHT22;15858;48.338;11.078;2022-10-16T14:52:15;22.60;99.90
28677;DHT22;15858;48.338;11.078;2022-10-16T14:54:42;22.50;99.90
28677;DHT22;15858;48.338;11.078;2022-10-16T14:57:20;22.40;99.90
28677;DHT22;15858;48.338;11.078;2022-10-16T14:59:49;22.40;99.90
28677;DHT22;15858;48.338;11.078;2022-10-16T15:02:31;22.30;99.90
28677;DHT22;15858;48.338;11.078;2022-10-16T15:05:12;22.20;99.90
28677;DHT22;15858;48.338;11.078;2022-10-16T15:07:39;22.20;99.90
28677;DHT22;15858;48.338;11.078;2022-10-16T15:10:06;22.20;99.90
28677;DHT22;15858;48.338;11.078;2022-10-16T15:12:33;22.20;99.90
28677;DHT22;15858;48.338;11.078;2022-10-16T15:14:59;22.20;99.90
28677;DHT22;15858;48.338;11.078;2022-10-16T15:17:29;22.10;99.90
28677;DHT22;15858;48.338;11.078;2022-10-16T15:19:56;22.10;99.90
28677;DHT22;15858;48.338;11.078;2022-10-16T15:22:23;22.00;99.90
28677;DHT22;15858;48.338;11.078;2022-10-16T15:24:49;22.00;99.90
28677;DHT22;15858;48.338;11.078;2022-10-16T15:27:16;22.00;99.90
28677;DHT22;15858;48.338;11.078;2022-10-16T15:29:43;21.90;99.90
28677;DHT22;15858;48.338;11.078;2022-10-16T15:32:10;21.80;99.90
28677;DHT22;15858;48.338;11.078;2022-10-16T15:34:37;21.80;99.90
28677;DHT22;15858;48.338;11.078;2022-10-16T15:37:04;21.60;99.90
28677;DHT22;15858;48.338;11.078;2022-10-16T15:39:30;21.50;99.90
28677;DHT22;15858;48.338;11.078;2022-10-16T15:41:57;21.30;99.90
28677;DHT22;15858;48.338;11.078;2022-10-16T15:44:23;21.20;99.90
28677;DHT22;15858;48.338;11.078;2022-10-16T15:46:50;21.20;99.90
28677;DHT22;15858;48.338;11.078;2022-10-16T15:49:17;21.10;99.90
28677;DHT22;15858;48.338;11.078;2022-10-16T15:57:02;20.90;99.90
28677;DHT22;15858;48.338;11.078;2022-10-16T15:59:29;20.70;99.90
28677;DHT22;15858;48.338;11.078;2022-10-16T16:01:56;20.60;99.90
28677;DHT22;15858;48.338;11.078;2022-10-16T16:04:23;20.60;99.90
28677;DHT22;15858;48.338;11.078;2022-10-16T16:07:09;20.50;99.90
28677;DHT22;15858;48.338;11.078;2022-10-16T16:09:36;20.30;99.90
28677;DHT22;15858;48.338;11.078;2022-10-16T16:12:03;20.20;99.90
28677;DHT22;15858;48.338;11.078;2022-10-16T16:14:31;20.10;99.90
28677;DHT22;15858;48.338;11.078;2022-10-16T16:16:58;20.00;99.90
28677;DHT22;15858;48.338;11.078;2022-10-16T16:19:24;19.90;99.90
28677;DHT22;15858;48.338;11.078;2022-10-16T16:21:51;19.80;99.90
28677;DHT22;15858;48.338;11.078;2022-10-16T16:24:17;19.80;99.90
28677;DHT22;15858;48.338;11.078;2022-10-16T16:26:44;19.60;99.90
28677;DHT22;15858;48.338;11.078;2022-10-16T16:29:15;19.50;99.90
28677;DHT22;15858;48.338;11.078;2022-10-16T16:31:42;19.40;99.90
28677;DHT22;15858;48.338;11.078;2022-10-16T16:34:09;19.40;99.90
28677;DHT22;15858;48.338;11.078;2022-10-16T16:36:36;19.30;99.90
28677;DHT22;15858;48.338;11.078;2022-10-16T16:39:03;19.20;99.90
28677;DHT22;15858;48.338;11.078;2022-10-16T16:41:30;19.10;99.90
28677;DHT22;15858;48.338;11.078;2022-10-16T16:44:08;18.90;99.90
28677;DHT22;15858;48.338;11.078;2022-10-16T16:46:35;18.80;99.90
28677;DHT22;15858;48.338;11.078;2022-10-16T16:49:03;18.80;99.90
28677;DHT22;15858;48.338;11.078;2022-10-16T16:51:29;18.70;99.90
28677;DHT22;15858;48.338;11.078;2022-10-16T16:53:56;18.60;99.90
28677;DHT22;15858;48.338;11.078;2022-10-16T16:56:23;18.60;99.90
28677;DHT22;15858;48.338;11.078;2022-10-16T16:58:52;18.50;99.90
28677;DHT22;15858;48.338;11.078;2022-10-16T17:01:20;18.50;99.90
28677;DHT22;15858;48.338;11.078;2022-10-16T17:03:57;18.40;99.90
28677;DHT22;15858;48.338;11.078;2022-10-16T17:06:26;18.40;99.90
28677;DHT22;15858;48.338;11.078;2022-10-16T17:08:54;18.30;99.90
28677;DHT22;15858;48.338;11.078;2022-10-16T17:11:22;18.30;99.90
28677;DHT22;15858;48.338;11.078;2022-10-16T17:13:50;18.20;99.90
28677;DHT22;15858;48.338;11.078;2022-10-16T17:16:29;18.10;99.90
28677;DHT22;15858;48.338;11.078;2022-10-16T17:19:02;18.10;99.90
28677;DHT22;15858;48.338;11.078;2022-10-16T17:21:30;18.00;99.90
28677;DHT22;15858;48.338;11.078;2022-10-16T17:23:57;17.90;99.90
28677;DHT22;15858;48.338;11.078;2022-10-16T17:26:24;17.90;99.90
28677;DHT22;15858;48.338;11.078;2022-10-16T17:28:56;17.90;99.90